createdAt,value
2023-03-08T00:01:59.576Z,88.97
2023-03-08T00:04:29.200Z,88.71
2023-03-08T00:06:59.034Z,88.55
2023-03-08T00:09:28.872Z,89.68
2023-03-08T00:11:58.685Z,88.71
2023-03-08T00:14:28.457Z,88.61
2023-03-08T00:16:58.694Z,89.11
2023-03-08T00:19:28.476Z,88.65
2023-03-08T00:21:58.687Z,89.51
2023-03-08T00:24:28.282Z,89.17
2023-03-08T00:26:58.122Z,89.28
2023-03-08T00:29:27.948Z,89.55
2023-03-08T00:31:59.407Z,88.43
2023-03-08T00:34:29.186Z,88.64
2023-03-08T00:36:58.945Z,88.33
2023-03-08T00:39:28.695Z,87.98
2023-03-08T00:41:58.469Z,88.97
2023-03-08T00:44:28.037Z,88.77
2023-03-08T00:46:57.972Z,88.33
2023-03-08T00:49:27.939Z,87.92
2023-03-08T00:51:58.002Z,88.21
2023-03-08T00:54:27.828Z,88.00
2023-03-08T00:56:57.857Z,89.50
2023-03-08T00:59:28.008Z,88.83
2023-03-08T01:01:58.756Z,88.40
2023-03-08T01:04:28.672Z,88.25
2023-03-08T01:06:59.332Z,88.73
2023-03-08T01:09:29.093Z,88.52
2023-03-08T01:11:58.967Z,88.28
2023-03-08T01:14:30.009Z,88.16
2023-03-08T01:16:59.776Z,88.73
2023-03-08T01:19:29.720Z,88.80
2023-03-08T01:22:00.360Z,88.21
2023-03-08T01:24:30.186Z,90.06
2023-03-08T01:27:00.926Z,88.67
2023-03-08T01:29:30.710Z,88.67
2023-03-08T01:32:00.552Z,88.43
2023-03-08T01:34:30.398Z,88.48
2023-03-08T01:37:00.187Z,88.51
2023-03-08T01:39:29.955Z,88.71
2023-03-08T01:41:59.719Z,88.52
2023-03-08T01:44:32.186Z,87.99
2023-03-08T01:47:01.964Z,88.05
2023-03-08T01:49:36.022Z,87.86
2023-03-08T01:52:12.866Z,88.80
2023-03-08T01:54:48.986Z,88.80
2023-03-08T01:57:21.763Z,88.55
2023-03-08T01:59:53.966Z,88.55
2023-03-08T02:02:29.864Z,88.99
2023-03-08T02:04:59.834Z,88.90
2023-03-08T02:07:31.164Z,88.93
2023-03-08T02:10:01.326Z,88.37
2023-03-08T02:12:31.211Z,88.37
2023-03-08T02:15:03.355Z,88.45
2023-03-08T02:17:35.143Z,88.36
2023-03-08T02:20:20.931Z,88.66
2023-03-08T02:22:52.363Z,88.56
2023-03-08T02:25:25.711Z,88.72
2023-03-08T02:27:56.295Z,89.15
2023-03-08T02:30:28.772Z,89.23
2023-03-08T02:32:58.718Z,88.50
2023-03-08T02:35:32.005Z,89.05
2023-03-08T02:38:01.821Z,89.61
2023-03-08T02:40:33.566Z,88.80
2023-03-08T02:43:03.653Z,88.87
2023-03-08T02:45:34.440Z,89.42
2023-03-08T02:48:07.369Z,89.62
2023-03-08T02:50:37.460Z,89.62
2023-03-08T02:53:08.120Z,89.49
2023-03-08T02:55:38.184Z,89.77
2023-03-08T02:58:11.839Z,90.10
2023-03-08T03:00:42.114Z,90.43
2023-03-08T03:03:12.049Z,90.14
2023-03-08T03:05:45.702Z,92.10
2023-03-08T03:08:16.953Z,91.43
2023-03-08T03:10:46.753Z,91.33
2023-03-08T03:13:16.823Z,90.78
2023-03-08T03:15:46.679Z,90.92
2023-03-08T03:18:16.547Z,90.34
2023-03-08T03:20:46.357Z,90.93
2023-03-08T03:23:16.181Z,90.74
2023-03-08T03:25:47.672Z,90.42
2023-03-08T03:28:18.911Z,90.42
2023-03-08T03:30:49.917Z,91.25
2023-03-08T03:33:19.938Z,90.99
2023-03-08T03:35:50.000Z,90.67
2023-03-08T03:38:20.687Z,90.47
2023-03-08T03:40:50.988Z,90.32
2023-03-08T03:43:21.019Z,90.99
2023-03-08T03:46:01.873Z,91.41
2023-03-08T03:48:32.257Z,91.07
2023-03-08T03:51:07.227Z,90.73
2023-03-08T03:53:37.628Z,91.19
2023-03-08T03:56:13.144Z,90.25
2023-03-08T03:58:43.587Z,90.48
2023-03-08T04:01:17.509Z,90.52
2023-03-08T04:03:47.762Z,90.03
2023-03-08T04:06:20.625Z,89.73
2023-03-08T04:08:53.951Z,90.36
2023-03-08T04:11:26.298Z,89.23
2023-03-08T04:13:57.045Z,90.05
2023-03-08T04:16:30.669Z,89.46
2023-03-08T04:19:03.724Z,89.83
2023-03-08T04:21:34.706Z,90.30
2023-03-08T04:24:06.584Z,90.85
2023-03-08T04:26:37.728Z,90.15
2023-03-08T04:29:07.883Z,90.38
2023-03-08T04:31:38.196Z,90.96
2023-03-08T04:34:11.911Z,90.96
2023-03-08T04:36:43.039Z,90.99
2023-03-08T04:39:12.901Z,90.97
2023-03-08T04:41:42.885Z,90.87
2023-03-08T04:44:14.224Z,90.58
2023-03-08T04:46:45.858Z,90.43
2023-03-08T04:49:17.666Z,91.22
2023-03-08T04:51:49.130Z,91.35
2023-03-08T04:54:19.123Z,91.57
2023-03-08T04:56:50.667Z,91.80
2023-03-08T04:59:21.721Z,91.80
2023-03-08T05:01:53.052Z,91.63
2023-03-08T05:04:22.984Z,91.22
2023-03-08T05:06:52.744Z,90.69
2023-03-08T05:09:24.596Z,91.14
2023-03-08T05:11:55.182Z,90.77
2023-03-08T05:14:25.125Z,91.36
2023-03-08T05:16:58.068Z,91.30
2023-03-08T05:19:28.066Z,91.33
2023-03-08T05:21:57.893Z,91.00
2023-03-08T05:24:27.755Z,90.81
2023-03-08T05:26:58.564Z,91.47
2023-03-08T05:29:28.708Z,91.00
2023-03-08T05:32:00.930Z,91.63
2023-03-08T05:34:31.909Z,90.90
2023-03-08T05:37:01.945Z,90.90
2023-03-08T05:39:32.227Z,91.70
2023-03-08T05:42:03.709Z,91.80
2023-03-08T05:44:36.130Z,90.55
2023-03-08T05:47:06.159Z,91.38
2023-03-08T05:49:36.045Z,91.30
2023-03-08T05:52:07.118Z,91.34
2023-03-08T05:54:39.545Z,91.88
2023-03-08T05:57:11.041Z,91.31
2023-03-08T05:59:40.886Z,91.53
2023-03-08T06:02:11.965Z,91.53
2023-03-08T06:04:49.821Z,91.70
2023-03-08T06:07:21.308Z,92.38
2023-03-08T06:09:52.983Z,92.45
2023-03-08T06:12:22.848Z,91.81
2023-03-08T06:14:54.702Z,92.58
2023-03-08T06:17:26.127Z,92.25
2023-03-08T06:19:57.095Z,91.37
2023-03-08T06:22:26.932Z,92.47
2023-03-08T06:24:57.413Z,91.89
2023-03-08T06:27:29.099Z,92.46
2023-03-08T06:30:00.954Z,91.04
2023-03-08T06:32:32.604Z,91.09
2023-03-08T06:35:02.875Z,91.31
2023-03-08T06:37:37.178Z,91.36
2023-03-08T06:40:11.889Z,91.19
2023-03-08T06:42:42.115Z,91.01
2023-03-08T06:45:13.862Z,91.18
2023-03-08T06:47:43.979Z,92.18
2023-03-08T06:50:15.150Z,91.09
2023-03-08T06:52:46.741Z,91.67
2023-03-08T06:55:17.589Z,92.00
2023-03-08T06:57:47.386Z,92.00
2023-03-08T07:00:17.511Z,91.81
2023-03-08T07:02:48.549Z,91.94
2023-03-08T07:05:18.138Z,90.79
2023-03-08T07:07:47.960Z,91.46
2023-03-08T07:10:20.314Z,91.79
2023-03-08T07:12:51.496Z,91.54
2023-03-08T07:15:23.350Z,92.18
2023-03-08T07:17:57.729Z,91.02
2023-03-08T07:20:28.526Z,91.02
2023-03-08T07:23:00.343Z,90.88
2023-03-08T07:25:30.132Z,90.40
2023-03-08T07:28:02.905Z,90.85
2023-03-08T07:30:33.105Z,90.56
2023-03-08T07:33:02.914Z,90.29
2023-03-08T07:35:32.777Z,89.99
2023-03-08T07:38:02.725Z,90.95
2023-03-08T07:40:32.800Z,91.06
2023-03-08T07:43:02.640Z,90.44
2023-03-08T07:45:34.390Z,90.78
2023-03-08T07:48:06.975Z,90.73
2023-03-08T07:50:37.496Z,90.68
2023-03-08T07:53:08.106Z,90.68
2023-03-08T07:55:39.114Z,90.36
2023-03-08T07:58:11.284Z,90.06
2023-03-08T08:00:41.369Z,89.53
2023-03-08T08:03:11.183Z,89.49
2023-03-08T08:05:41.466Z,89.96
2023-03-08T08:08:13.814Z,88.83
2023-03-08T08:10:44.364Z,88.83
2023-03-08T08:13:14.286Z,89.35
2023-03-08T08:15:44.069Z,89.37
2023-03-08T08:18:13.901Z,89.52
2023-03-08T08:20:44.352Z,90.12
2023-03-08T08:23:14.136Z,90.37
2023-03-08T08:25:45.588Z,90.55
2023-03-08T08:28:15.433Z,89.53
2023-03-08T08:30:45.472Z,89.87
2023-03-08T08:33:15.177Z,88.74
2023-03-08T08:35:45.122Z,89.33
2023-03-08T08:38:14.908Z,89.48
2023-03-08T08:40:44.773Z,88.84
2023-03-08T08:43:14.401Z,88.48
2023-03-08T08:45:49.108Z,88.64
2023-03-08T08:48:18.844Z,89.44
2023-03-08T08:50:48.625Z,89.45
2023-03-08T08:53:18.620Z,90.20
2023-03-08T08:55:48.514Z,90.64
2023-03-08T08:58:18.142Z,89.86
2023-03-08T09:00:48.201Z,89.55
2023-03-08T09:03:18.254Z,89.34
2023-03-08T09:05:48.148Z,89.33
2023-03-08T09:08:17.968Z,89.20
2023-03-08T09:10:48.128Z,88.41
2023-03-08T09:13:17.942Z,89.52
2023-03-08T09:15:47.823Z,89.67
2023-03-08T09:18:17.609Z,89.08
2023-03-08T09:20:47.373Z,89.22
2023-03-08T09:23:17.182Z,88.47
2023-03-08T09:25:46.981Z,89.66
2023-03-08T09:28:16.782Z,89.00
2023-03-08T09:30:46.284Z,88.82
2023-03-08T09:33:16.250Z,89.29
2023-03-08T09:35:46.051Z,89.53
2023-03-08T09:38:15.862Z,89.20
2023-03-08T09:40:48.642Z,88.87
2023-03-08T09:43:21.780Z,89.36
2023-03-08T09:45:55.021Z,88.98
2023-03-08T09:48:29.620Z,89.26
2023-03-08T09:51:03.865Z,89.26
2023-03-08T09:53:42.513Z,89.25
2023-03-08T09:56:17.865Z,89.25
2023-03-08T09:58:50.357Z,89.05
2023-03-08T10:01:41.308Z,88.04
2023-03-08T10:04:26.623Z,88.13
2023-03-08T10:07:30.559Z,87.38
2023-03-08T10:10:09.728Z,88.61
2023-03-08T10:12:50.862Z,87.70
2023-03-08T10:15:23.411Z,87.34
2023-03-08T10:18:08.347Z,86.81
2023-03-08T10:20:41.050Z,86.39
2023-03-08T10:23:22.189Z,87.85
2023-03-08T10:25:52.422Z,87.46
2023-03-08T10:28:27.786Z,87.14
2023-03-08T10:30:59.806Z,87.58
2023-03-08T10:33:37.051Z,87.06
2023-03-08T10:36:12.736Z,86.61
2023-03-08T10:38:42.368Z,86.23
2023-03-08T10:41:15.231Z,84.94
2023-03-08T10:43:53.710Z,85.60
2023-03-08T10:46:26.373Z,84.14
2023-03-08T10:48:56.299Z,82.82
2023-03-08T10:51:29.314Z,83.48
2023-03-08T10:54:02.773Z,84.08
2023-03-08T10:56:56.369Z,84.46
2023-03-08T10:59:30.824Z,84.92
2023-03-08T11:02:04.371Z,83.72
2023-03-08T11:04:34.276Z,83.87
2023-03-08T11:07:13.174Z,81.93
2023-03-08T11:09:42.951Z,82.58
2023-03-08T11:12:15.691Z,82.52
2023-03-08T11:14:45.657Z,82.36
2023-03-08T11:17:37.280Z,81.69
2023-03-08T11:20:24.835Z,82.98
2023-03-08T11:22:57.675Z,82.86
2023-03-08T11:25:39.591Z,81.93
2023-03-08T11:28:20.564Z,81.70
2023-03-08T11:31:12.600Z,81.53
2023-03-08T11:33:48.486Z,81.60
2023-03-08T11:36:38.933Z,81.10
2023-03-08T11:39:20.649Z,81.05
2023-03-08T11:41:56.055Z,81.53
2023-03-08T11:44:43.735Z,82.08
2023-03-08T11:47:40.248Z,80.94
2023-03-08T11:53:36.275Z,81.54
2023-03-08T11:56:27.803Z,81.16
2023-03-08T11:59:15.273Z,81.29
2023-03-08T12:02:05.846Z,80.89
2023-03-08T12:04:53.849Z,80.89
2023-03-08T12:07:35.576Z,80.50
2023-03-08T12:10:33.780Z,79.95
2023-03-08T12:13:04.097Z,80.33
2023-03-08T12:15:36.645Z,79.82
2023-03-08T12:18:16.821Z,80.51
2023-03-08T12:20:47.446Z,80.56
2023-03-08T12:23:20.601Z,80.18
2023-03-08T12:25:53.375Z,80.18
2023-03-08T12:28:25.980Z,80.19
2023-03-08T12:33:40.556Z,80.23
2023-03-08T12:36:11.794Z,79.50
2023-03-08T12:38:47.858Z,79.81
2023-03-08T12:41:23.350Z,79.82
2023-03-08T12:44:26.321Z,78.32
2023-03-08T12:47:13.992Z,78.65
2023-03-08T12:49:47.414Z,78.36
2023-03-08T12:52:23.308Z,78.78
2023-03-08T12:55:20.882Z,78.19
2023-03-08T12:57:53.824Z,78.59
2023-03-08T13:00:29.179Z,79.46
2023-03-08T13:03:14.558Z,78.59
2023-03-08T13:05:46.874Z,78.93
2023-03-08T13:08:23.369Z,78.80
2023-03-08T13:10:58.730Z,79.61
2023-03-08T13:13:46.232Z,78.60
2023-03-08T13:16:21.895Z,78.43
2023-03-08T13:18:55.165Z,78.46
2023-03-08T13:21:36.650Z,78.88
2023-03-08T13:24:23.245Z,77.79
2023-03-08T13:27:04.456Z,77.79
2023-03-08T13:29:35.597Z,77.91
2023-03-08T13:32:18.608Z,78.92
2023-03-08T13:34:54.238Z,78.26
2023-03-08T13:37:28.541Z,78.09
2023-03-08T13:40:00.469Z,76.98
2023-03-08T13:42:30.739Z,77.41
2023-03-08T13:45:12.205Z,77.44
2023-03-08T13:47:43.492Z,77.43
2023-03-08T13:50:21.586Z,76.75
2023-03-08T13:52:52.094Z,76.75
2023-03-08T13:58:07.703Z,77.26
2023-03-08T14:00:37.735Z,76.17
2023-03-08T14:03:07.936Z,76.82
2023-03-08T14:05:45.581Z,75.81
2023-03-08T14:08:24.956Z,77.17
2023-03-08T14:11:04.171Z,77.53
2023-03-08T14:13:36.922Z,77.48
2023-03-08T14:16:09.674Z,77.38
2023-03-08T14:18:43.630Z,77.67
2023-03-08T14:21:18.948Z,77.67
2023-03-08T14:23:54.446Z,77.30
2023-03-08T14:26:24.596Z,77.05
2023-03-08T14:29:19.319Z,77.10
2023-03-08T14:32:04.610Z,76.12
2023-03-08T14:34:45.815Z,76.70
2023-03-08T14:37:29.902Z,76.74
2023-03-08T14:40:36.475Z,77.81
2023-03-08T14:43:09.414Z,79.11
2023-03-08T14:45:42.821Z,78.76
2023-03-08T14:48:18.838Z,78.76
2023-03-08T14:50:57.354Z,79.40
2023-03-08T14:53:30.674Z,79.34
2023-03-08T14:56:03.563Z,79.39
2023-03-08T14:58:35.287Z,78.46
2023-03-08T15:01:05.273Z,78.56
2023-03-08T15:03:35.251Z,78.82
2023-03-08T15:06:09.498Z,79.07
2023-03-08T15:08:39.640Z,79.01
2023-03-08T15:11:09.644Z,79.83
2023-03-08T15:13:39.587Z,80.12
2023-03-08T15:16:14.225Z,80.21
2023-03-08T15:18:43.133Z,80.69
2023-03-08T15:21:16.080Z,80.69
2023-03-08T15:23:47.694Z,80.02
2023-03-08T15:26:20.899Z,81.26
2023-03-08T15:28:50.791Z,81.44
2023-03-08T15:31:21.621Z,80.76
2023-03-08T15:33:51.303Z,80.87
2023-03-08T15:36:21.205Z,81.68
2023-03-08T15:38:50.908Z,82.70
2023-03-08T15:41:20.827Z,83.54
2023-03-08T15:43:51.463Z,83.46
2023-03-08T15:46:21.043Z,83.44
2023-03-08T15:48:51.128Z,83.93
2023-03-08T15:51:23.026Z,83.93
2023-03-08T15:53:52.825Z,84.62
2023-03-08T15:56:22.797Z,84.99
2023-03-08T15:58:54.584Z,84.09
2023-03-08T16:01:27.647Z,84.09
2023-03-08T16:03:58.357Z,85.81
2023-03-08T16:06:28.214Z,85.96
2023-03-08T16:08:58.571Z,86.46
2023-03-08T16:11:28.438Z,86.51
2023-03-08T16:13:58.411Z,85.85
2023-03-08T16:16:42.561Z,85.46
2023-03-08T16:18:59.853Z,86.60
2023-03-08T16:21:29.745Z,85.69
2023-03-08T16:24:01.159Z,88.16
2023-03-08T16:26:31.028Z,87.51
2023-03-08T16:29:00.792Z,87.87
2023-03-08T16:31:32.242Z,88.45
2023-03-08T16:34:06.265Z,88.67
2023-03-08T16:36:36.479Z,88.14
2023-03-08T16:39:07.602Z,89.15
2023-03-08T16:41:38.800Z,89.61
2023-03-08T16:44:21.473Z,90.76
2023-03-08T16:46:52.086Z,90.04
2023-03-08T16:49:23.091Z,88.86
2023-03-08T16:51:52.880Z,88.77
2023-03-08T16:54:22.681Z,89.21
2023-03-08T16:56:52.922Z,89.27
2023-03-08T16:59:22.874Z,90.21
2023-03-08T17:01:52.749Z,89.41
2023-03-08T17:04:23.112Z,89.89
2023-03-08T17:06:53.092Z,89.36
2023-03-08T17:09:23.004Z,89.14
2023-03-08T17:11:52.775Z,89.45
2023-03-08T17:14:22.516Z,89.45
2023-03-08T17:16:52.293Z,88.99
2023-03-08T17:19:22.118Z,89.33
2023-03-08T17:21:52.872Z,88.41
2023-03-08T17:24:22.638Z,88.95
2023-03-08T17:26:53.019Z,88.43
2023-03-08T17:29:23.346Z,88.88
2023-03-08T17:31:53.899Z,89.35
2023-03-08T17:34:23.749Z,91.49
2023-03-08T17:36:53.581Z,89.86
2023-03-08T17:39:23.694Z,89.40
2023-03-08T17:41:53.466Z,90.81
2023-03-08T17:44:23.239Z,90.03
2023-03-08T17:46:53.047Z,90.21
2023-03-08T17:49:24.981Z,90.04
2023-03-08T17:51:54.953Z,89.72
2023-03-08T17:54:24.721Z,91.00
2023-03-08T17:56:54.557Z,90.42
2023-03-08T17:59:24.825Z,89.62
2023-03-08T18:01:54.980Z,89.43
2023-03-08T18:04:24.618Z,89.80
2023-03-08T18:06:54.677Z,91.62
2023-03-08T18:09:24.798Z,90.46
2023-03-08T18:11:54.608Z,90.46
2023-03-08T18:14:34.409Z,89.90
2023-03-08T18:16:56.111Z,90.73
2023-03-08T18:19:26.028Z,90.83
2023-03-08T18:21:57.558Z,91.00
2023-03-08T18:24:28.384Z,91.27
2023-03-08T18:26:58.236Z,91.63
2023-03-08T18:29:27.882Z,91.13
2023-03-08T18:31:57.627Z,92.10
2023-03-08T18:34:27.821Z,91.90
2023-03-08T18:37:01.492Z,92.27
2023-03-08T18:39:31.120Z,90.90
2023-03-08T18:42:02.118Z,92.56
2023-03-08T18:44:32.424Z,92.63
2023-03-08T18:47:02.649Z,92.73
2023-03-08T18:49:32.583Z,92.27
2023-03-08T18:52:02.442Z,92.05
2023-03-08T18:54:33.543Z,92.26
2023-03-08T18:57:03.385Z,91.91
2023-03-08T18:59:36.738Z,92.42
2023-03-08T19:02:11.944Z,92.19
2023-03-08T19:04:45.745Z,92.75
2023-03-08T19:07:16.069Z,92.75
2023-03-08T19:09:46.008Z,93.16
2023-03-08T19:12:16.101Z,92.74
2023-03-08T19:14:47.636Z,93.80
2023-03-08T19:17:17.409Z,93.95
2023-03-08T19:19:47.201Z,92.92
2023-03-08T19:22:19.688Z,93.68
2023-03-08T19:24:49.510Z,93.61
2023-03-08T19:27:19.860Z,93.15
2023-03-08T19:29:49.749Z,92.69
2023-03-08T19:32:19.928Z,92.92
2023-03-08T19:34:49.844Z,93.11
2023-03-08T19:37:19.750Z,92.61
2023-03-08T19:39:50.094Z,92.87
2023-03-08T19:42:19.799Z,92.69
2023-03-08T19:44:50.801Z,92.79
2023-03-08T19:47:20.838Z,92.87
2023-03-08T19:49:50.989Z,93.13
2023-03-08T19:52:20.825Z,92.42
2023-03-08T19:54:50.362Z,92.96
2023-03-08T19:57:20.174Z,92.09
2023-03-08T19:59:50.329Z,91.96
2023-03-08T20:02:19.915Z,91.97
2023-03-08T20:04:50.082Z,92.16
2023-03-08T20:07:19.891Z,91.82
2023-03-08T20:09:52.918Z,91.21
2023-03-08T20:12:22.742Z,91.82
2023-03-08T20:14:52.954Z,92.00
2023-03-08T20:17:23.874Z,91.67
2023-03-08T20:19:53.674Z,91.67
2023-03-08T20:22:23.511Z,92.36
2023-03-08T20:24:53.594Z,91.67
2023-03-08T20:27:23.345Z,92.28
2023-03-08T20:29:53.942Z,91.83
2023-03-08T20:32:23.967Z,92.90
2023-03-08T20:34:53.737Z,92.25
2023-03-08T20:37:23.780Z,93.34
2023-03-08T20:39:58.244Z,93.32
2023-03-08T20:42:27.883Z,92.78
2023-03-08T20:44:57.752Z,92.78
2023-03-08T20:47:27.784Z,92.58
2023-03-08T20:49:57.578Z,92.81
2023-03-08T20:52:27.448Z,92.77
2023-03-08T20:54:57.285Z,92.51
2023-03-08T20:57:27.445Z,92.92
2023-03-08T20:59:57.604Z,92.84
2023-03-08T21:02:27.409Z,92.95
2023-03-08T21:04:58.218Z,92.95
2023-03-08T21:07:28.370Z,93.28
2023-03-08T21:09:58.201Z,93.07
2023-03-08T21:12:27.683Z,93.40
2023-03-08T21:14:58.708Z,92.88
2023-03-08T21:17:30.104Z,92.37
2023-03-08T21:20:00.237Z,92.59
2023-03-08T21:22:32.215Z,92.53
2023-03-08T21:25:02.170Z,91.74
2023-03-08T21:27:32.227Z,91.46
2023-03-08T21:30:02.123Z,92.45
2023-03-08T21:32:32.160Z,92.92
2023-03-08T21:35:02.037Z,92.38
2023-03-08T21:37:31.849Z,92.96
2023-03-08T21:40:01.817Z,93.04
2023-03-08T21:42:31.569Z,92.63
2023-03-08T21:45:01.407Z,93.14
2023-03-08T21:47:31.157Z,92.41
2023-03-08T21:50:01.329Z,93.15
2023-03-08T21:52:31.122Z,93.49
2023-03-08T21:55:01.202Z,93.48
2023-03-08T21:57:33.735Z,93.50
2023-03-08T22:00:04.142Z,93.31
2023-03-08T22:02:35.695Z,93.30
2023-03-08T22:05:07.761Z,94.25
2023-03-08T22:07:37.904Z,93.39
2023-03-08T22:10:09.182Z,93.29
2023-03-08T22:12:39.000Z,93.29
2023-03-08T22:15:09.246Z,93.64
2023-03-08T22:17:39.774Z,94.61
2023-03-08T22:20:13.513Z,94.54
2023-03-08T22:22:44.168Z,94.07
2023-03-08T22:25:14.232Z,93.38
2023-03-08T22:27:44.342Z,93.01
2023-03-08T22:30:14.672Z,93.86
2023-03-08T22:32:44.871Z,92.88
2023-03-08T22:35:15.278Z,93.24
2023-03-08T22:37:45.650Z,93.28
2023-03-08T22:40:18.126Z,92.65
2023-03-08T22:42:48.008Z,93.21
2023-03-08T22:45:17.910Z,93.21
2023-03-08T22:47:48.029Z,93.93
2023-03-08T22:50:17.967Z,93.20
2023-03-08T22:52:47.786Z,93.01
2023-03-08T22:55:17.764Z,93.97
2023-03-08T22:57:47.858Z,94.62
2023-03-08T23:00:19.694Z,93.51
2023-03-08T23:02:49.912Z,93.17
2023-03-08T23:05:21.518Z,93.55
2023-03-08T23:07:53.192Z,92.49
2023-03-08T23:10:22.993Z,92.24
2023-03-08T23:12:52.864Z,91.65
2023-03-08T23:15:22.758Z,91.64
2023-03-08T23:17:52.995Z,91.64
2023-03-08T23:20:22.759Z,92.47
2023-03-08T23:22:52.868Z,92.43
2023-03-08T23:25:22.782Z,93.04
2023-03-08T23:27:52.626Z,92.75
2023-03-08T23:30:22.403Z,93.38
2023-03-08T23:32:52.364Z,93.58
2023-03-08T23:35:22.019Z,93.54
2023-03-08T23:37:51.788Z,93.38
2023-03-08T23:40:21.311Z,93.92
2023-03-08T23:42:51.097Z,94.93
2023-03-08T23:45:21.195Z,93.92
2023-03-08T23:47:51.213Z,95.11
2023-03-08T23:50:21.109Z,94.22
2023-03-08T23:52:50.539Z,94.27
2023-03-08T23:55:20.382Z,94.09
2023-03-08T23:57:50.182Z,93.85
